Terminal Aerodrome Forecast
Issued by NWS La Crosse, WI

Home | Current Version | Previous Version | Text Only | Print | Product List | Glossary On
Versions: 1 2 3 4 5 6 7 8 9 10 11 12 13 14 15 16 17 18 19 20 21
000
FTUS43 KARX 260807 AAA
TAFRST
TAF AMD
KRST 260807Z 2608/2706 17006KT P6SM BKN070
      TEMPO 2608/2610 30015G30KT 3SM TSRA BKN015CB
     FM261100 22009KT P6SM SCT080
     FM261900 23008KT P6SM SCT050
     FM270400 18007KT P6SM VCTS BKN050CB=

USA.gov is the U.S. government's official web portal to all federal, state and local government web resources and services.